createdAt,value
2018-01-20T00:00:56.217Z,1.71
2018-01-20T00:03:23.676Z,1.80
2018-01-20T00:05:51.115Z,1.87
2018-01-20T00:08:18.903Z,1.86
2018-01-20T00:10:58.150Z,1.76
2018-01-20T00:13:25.805Z,1.79
2018-01-20T00:15:53.253Z,1.75
2018-01-20T00:18:20.713Z,1.72
2018-01-20T00:20:48.808Z,1.79
2018-01-20T00:23:16.265Z,1.89
2018-01-20T00:28:43.766Z,1.40
2018-01-20T00:31:11.543Z,1.50
2018-01-20T00:33:39.067Z,1.47
2018-01-20T00:36:06.537Z,1.35
2018-01-20T00:38:34.350Z,1.23
2018-01-20T00:41:01.813Z,1.22
2018-01-20T00:43:29.270Z,1.39
2018-01-20T00:45:57.208Z,1.46
2018-01-20T00:48:24.665Z,1.72
2018-01-20T00:50:52.128Z,1.55
2018-01-20T00:53:19.877Z,1.75
2018-01-20T00:55:47.334Z,1.66
2018-01-20T00:58:14.793Z,1.59
2018-01-20T01:00:43.175Z,1.37
2018-01-20T01:03:11.344Z,1.51
2018-01-20T01:05:38.792Z,1.46
2018-01-20T01:08:06.777Z,1.43
2018-01-20T01:10:34.225Z,1.42
2018-01-20T01:13:01.676Z,1.74
2018-01-20T01:15:29.443Z,1.84
2018-01-20T01:17:56.895Z,1.99
2018-01-20T01:20:24.345Z,1.98
2018-01-20T01:22:52.162Z,1.99
2018-01-20T01:25:19.617Z,1.92
2018-01-20T01:27:47.467Z,2.03
2018-01-20T01:30:15.202Z,2.06
2018-01-20T01:32:42.658Z,2.15
2018-01-20T01:35:10.116Z,2.10
2018-01-20T01:37:37.858Z,2.10
2018-01-20T01:40:05.321Z,1.69
2018-01-20T01:42:32.777Z,1.88
2018-01-20T01:45:00.540Z,2.21
2018-01-20T01:47:28.005Z,2.10
2018-01-20T01:49:55.469Z,2.17
2018-01-20T01:52:23.226Z,2.13
2018-01-20T01:54:50.685Z,2.25
2018-01-20T01:57:18.153Z,2.09
2018-01-20T01:59:46.222Z,2.08
2018-01-20T02:02:13.680Z,2.25
2018-01-20T02:04:42.129Z,2.15
2018-01-20T02:07:09.837Z,2.21
2018-01-20T02:09:37.292Z,2.17
2018-01-20T02:12:04.752Z,2.13
2018-01-20T02:14:32.516Z,2.07
2018-01-20T02:16:59.972Z,2.14
2018-01-20T02:19:27.436Z,2.09
2018-01-20T02:21:55.200Z,2.23
2018-01-20T02:24:22.666Z,2.15
2018-01-20T02:26:50.123Z,2.18
2018-01-20T02:29:17.888Z,2.17
2018-01-20T02:31:45.338Z,2.23
2018-01-20T02:34:12.802Z,2.34
2018-01-20T02:36:40.568Z,2.26
2018-01-20T02:39:08.029Z,2.30
2018-01-20T02:41:35.501Z,2.29
2018-01-20T02:44:03.582Z,2.21
2018-01-20T02:46:31.034Z,2.20
2018-01-20T02:48:58.500Z,2.22
2018-01-20T02:51:26.230Z,2.18
2018-01-20T02:53:53.694Z,2.26
2018-01-20T02:56:21.154Z,2.27
2018-01-20T02:58:49.548Z,2.23
2018-01-20T03:01:17.000Z,2.30
2018-01-20T03:03:44.464Z,2.23
2018-01-20T03:06:14.056Z,2.26
2018-01-20T03:08:41.504Z,2.21
2018-01-20T03:11:08.961Z,2.26
2018-01-20T03:13:37.072Z,2.38
2018-01-20T03:16:04.534Z,2.35
2018-01-20T03:18:31.987Z,2.56
2018-01-20T03:20:59.770Z,2.61
2018-01-20T03:23:27.225Z,2.61
2018-01-20T03:25:54.676Z,2.69
2018-01-20T03:28:22.280Z,2.72
2018-01-20T03:30:49.733Z,2.82
2018-01-20T03:33:17.193Z,2.70
2018-01-20T03:35:45.132Z,2.78
2018-01-20T03:38:12.580Z,2.77
2018-01-20T03:40:40.016Z,2.80
2018-01-20T03:43:07.720Z,2.79
2018-01-20T03:45:35.173Z,2.87
2018-01-20T03:48:02.622Z,2.86
2018-01-20T03:50:30.603Z,2.86
2018-01-20T03:52:58.057Z,2.89
2018-01-20T03:55:25.501Z,2.93
2018-01-20T03:57:53.509Z,2.89
2018-01-20T04:00:20.944Z,2.88
2018-01-20T04:02:48.396Z,2.82
2018-01-20T04:05:16.191Z,2.72
2018-01-20T04:07:44.021Z,2.69
2018-01-20T04:10:11.469Z,2.59
2018-01-20T04:12:39.187Z,2.51
2018-01-20T04:15:06.646Z,2.48
2018-01-20T04:17:34.097Z,2.43
2018-01-20T04:20:01.876Z,2.58
2018-01-20T04:22:29.338Z,2.51
2018-01-20T04:24:56.786Z,2.56
2018-01-20T04:27:24.561Z,2.53
2018-01-20T04:29:52.009Z,2.54
2018-01-20T04:32:19.462Z,2.52
2018-01-20T04:34:47.247Z,2.58
2018-01-20T04:37:14.691Z,2.51
2018-01-20T04:39:42.141Z,2.63
2018-01-20T04:42:09.888Z,2.57
2018-01-20T04:44:37.342Z,2.68
2018-01-20T04:47:04.802Z,2.57
2018-01-20T04:49:32.634Z,2.65
2018-01-20T04:52:00.078Z,2.62
2018-01-20T04:54:27.525Z,2.49
2018-01-20T04:56:55.161Z,2.57
2018-01-20T04:59:22.614Z,2.58
2018-01-20T05:01:50.056Z,3.04
2018-01-20T05:04:18.007Z,2.81
2018-01-20T05:06:45.453Z,2.61
2018-01-20T05:09:13.524Z,2.53
2018-01-20T05:11:41.306Z,2.48
2018-01-20T05:14:08.777Z,2.41
2018-01-20T05:16:36.232Z,2.34
2018-01-20T05:19:03.988Z,2.45
2018-01-20T05:21:31.449Z,2.57
2018-01-20T05:23:58.903Z,2.54
2018-01-20T05:26:26.672Z,2.58
2018-01-20T05:28:54.132Z,2.63
2018-01-20T05:31:21.638Z,2.68
2018-01-20T05:33:49.830Z,2.71
2018-01-20T05:36:17.285Z,2.57
2018-01-20T05:38:44.745Z,2.59
2018-01-20T05:41:12.664Z,2.67
2018-01-20T05:43:40.124Z,2.70
2018-01-20T05:46:07.588Z,2.62
2018-01-20T05:48:35.660Z,2.63
2018-01-20T05:51:03.185Z,2.57
2018-01-20T05:53:30.650Z,2.41
2018-01-20T05:55:58.335Z,2.39
2018-01-20T05:58:25.792Z,2.43
2018-01-20T06:00:53.352Z,2.56
2018-01-20T06:03:21.341Z,2.51
2018-01-20T06:05:48.806Z,2.67
2018-01-20T06:08:16.265Z,2.67
2018-01-20T06:10:44.380Z,2.73
2018-01-20T06:13:11.837Z,2.80
2018-01-20T06:15:39.294Z,2.76
2018-01-20T06:18:07.020Z,2.78
2018-01-20T06:20:34.544Z,2.84
2018-01-20T06:23:02.016Z,2.85
2018-01-20T06:25:29.707Z,2.91
2018-01-20T06:27:57.179Z,2.96
2018-01-20T06:30:24.641Z,3.00
2018-01-20T06:32:52.384Z,3.14
2018-01-20T06:35:20.020Z,3.05
2018-01-20T06:37:47.465Z,3.07
2018-01-20T06:40:15.082Z,2.72
2018-01-20T06:42:42.546Z,3.03
2018-01-20T06:45:10.006Z,3.13
2018-01-20T06:47:37.767Z,3.09
2018-01-20T06:50:05.317Z,3.03
2018-01-20T06:52:33.366Z,3.06
2018-01-20T06:55:01.132Z,2.97
2018-01-20T06:57:28.583Z,2.96
2018-01-20T06:59:56.046Z,3.09
2018-01-20T07:02:23.633Z,3.11
2018-01-20T07:04:51.108Z,3.15
2018-01-20T07:07:18.561Z,3.11
2018-01-20T07:09:46.752Z,3.09
2018-01-20T07:12:16.735Z,3.03
2018-01-20T07:14:44.209Z,3.10
2018-01-20T07:17:11.915Z,3.07
2018-01-20T07:19:39.366Z,2.98
2018-01-20T07:22:06.835Z,3.06
2018-01-20T07:24:34.579Z,3.04
2018-01-20T07:27:02.037Z,3.00
2018-01-20T07:29:29.508Z,3.08
2018-01-20T07:31:57.257Z,2.99
2018-01-20T07:34:24.715Z,3.02
2018-01-20T07:36:52.172Z,3.01
2018-01-20T07:39:20.265Z,3.00
2018-01-20T07:41:47.716Z,3.07
2018-01-20T07:44:15.177Z,3.00
2018-01-20T07:46:43.176Z,3.11
2018-01-20T07:49:10.638Z,3.16
2018-01-20T07:51:38.097Z,3.17
2018-01-20T07:54:05.939Z,3.30
2018-01-20T07:56:33.396Z,3.33
2018-01-20T07:59:00.843Z,3.37
2018-01-20T08:01:28.934Z,3.31
2018-01-20T08:03:56.393Z,3.32
2018-01-20T08:06:23.847Z,3.32
2018-01-20T08:08:51.626Z,3.65
2018-01-20T08:11:19.133Z,4.16
2018-01-20T08:13:46.925Z,3.45
2018-01-20T08:16:14.611Z,3.55
2018-01-20T08:18:42.073Z,3.66
2018-01-20T08:21:09.772Z,3.78
2018-01-20T08:23:37.651Z,4.31
2018-01-20T08:26:05.101Z,4.38
2018-01-20T08:28:32.546Z,4.45
2018-01-20T08:31:00.296Z,4.58
2018-01-20T08:33:27.757Z,4.42
2018-01-20T08:35:55.200Z,4.63
2018-01-20T08:38:22.981Z,4.56
2018-01-20T08:40:50.429Z,4.48
2018-01-20T08:43:17.881Z,4.41
2018-01-20T08:45:45.551Z,4.17
2018-01-20T08:48:13.008Z,4.08
2018-01-20T08:50:40.471Z,4.01
2018-01-20T08:53:08.977Z,3.93
2018-01-20T08:55:36.429Z,3.85
2018-01-20T08:58:03.880Z,3.80
2018-01-20T09:00:31.656Z,3.87
2018-01-20T09:02:59.118Z,3.99
2018-01-20T09:05:26.572Z,4.22
2018-01-20T09:07:54.353Z,4.26
2018-01-20T09:10:21.812Z,4.72
2018-01-20T09:12:49.748Z,4.67
2018-01-20T09:15:18.190Z,5.06
2018-01-20T09:17:45.666Z,5.57
2018-01-20T09:20:13.116Z,5.73
2018-01-20T09:22:40.940Z,5.51
2018-01-20T09:25:08.385Z,5.45
2018-01-20T09:27:35.823Z,5.59
2018-01-20T09:30:03.633Z,5.56
2018-01-20T09:32:31.086Z,5.64
2018-01-20T09:34:58.527Z,5.79
2018-01-20T09:37:26.323Z,5.02
2018-01-20T09:39:53.832Z,5.19
2018-01-20T09:42:21.277Z,4.94
2018-01-20T09:44:49.309Z,5.02
2018-01-20T09:47:16.745Z,4.89
2018-01-20T09:49:44.189Z,4.45
2018-01-20T09:52:12.007Z,4.31
2018-01-20T09:54:39.465Z,4.46
2018-01-20T09:57:06.916Z,4.82
2018-01-20T09:59:34.687Z,4.64
2018-01-20T10:02:02.141Z,4.77
2018-01-20T10:04:29.590Z,4.68
2018-01-20T10:06:57.377Z,4.44
2018-01-20T10:09:24.853Z,4.35
2018-01-20T10:11:52.332Z,4.19
2018-01-20T10:14:20.120Z,4.66
2018-01-20T10:16:48.207Z,4.50
2018-01-20T10:19:15.652Z,4.74
2018-01-20T10:21:43.369Z,4.82
2018-01-20T10:24:10.812Z,4.94
2018-01-20T10:26:38.252Z,4.92
2018-01-20T10:29:06.358Z,4.66
2018-01-20T10:31:33.805Z,4.42
2018-01-20T10:34:01.261Z,4.01
2018-01-20T10:36:29.045Z,3.38
2018-01-20T10:38:56.500Z,3.22
2018-01-20T10:41:23.952Z,2.99
2018-01-20T10:43:51.741Z,2.58
2018-01-20T10:46:19.192Z,2.54
2018-01-20T10:48:46.632Z,2.32
2018-01-20T10:51:14.425Z,2.03
2018-01-20T10:53:41.866Z,1.97
2018-01-20T10:56:09.305Z,2.00
2018-01-20T10:58:37.429Z,2.32
2018-01-20T11:01:04.881Z,2.47
2018-01-20T11:03:32.342Z,2.63
2018-01-20T11:05:59.925Z,2.84
2018-01-20T11:08:27.368Z,2.90
2018-01-20T11:10:54.811Z,2.85
2018-01-20T11:13:22.792Z,2.98
2018-01-20T11:15:50.249Z,2.89
2018-01-20T11:18:18.085Z,2.89
2018-01-20T11:20:46.090Z,2.88
2018-01-20T11:23:13.533Z,2.92
2018-01-20T11:25:40.988Z,3.08
2018-01-20T11:28:08.776Z,3.15
2018-01-20T11:30:36.220Z,3.06
2018-01-20T11:33:03.669Z,3.13
2018-01-20T11:35:31.767Z,3.15
2018-01-20T11:37:59.211Z,3.37
2018-01-20T11:40:26.668Z,3.22
2018-01-20T11:42:54.533Z,3.25
2018-01-20T11:45:21.997Z,3.22
2018-01-20T11:47:49.437Z,3.38
2018-01-20T11:50:17.447Z,3.40
2018-01-20T11:52:44.898Z,3.33
2018-01-20T11:55:12.343Z,3.32
2018-01-20T11:57:40.132Z,3.36
2018-01-20T12:00:07.606Z,3.44
2018-01-20T12:02:35.072Z,3.55
2018-01-20T12:05:02.777Z,3.48
2018-01-20T12:07:30.315Z,3.52
2018-01-20T12:09:57.765Z,3.47
2018-01-20T12:12:26.299Z,3.44
2018-01-20T12:14:53.761Z,3.58
2018-01-20T12:17:21.197Z,3.50
2018-01-20T12:19:50.036Z,3.53
2018-01-20T12:22:17.495Z,3.57
2018-01-20T12:24:44.956Z,3.80
2018-01-20T12:27:12.723Z,3.72
2018-01-20T12:29:40.187Z,3.70
2018-01-20T12:32:07.637Z,3.73
2018-01-20T12:34:35.725Z,3.68
2018-01-20T12:37:03.172Z,3.69
2018-01-20T12:39:30.640Z,3.75
2018-01-20T12:41:58.720Z,4.09
2018-01-20T12:44:26.170Z,4.03
2018-01-20T12:46:53.613Z,4.06
2018-01-20T12:49:21.404Z,4.64
2018-01-20T12:51:48.849Z,5.17
2018-01-20T12:54:16.321Z,4.93
2018-01-20T12:56:44.137Z,5.16
2018-01-20T12:59:11.603Z,5.14
2018-01-20T13:01:39.057Z,5.25
2018-01-20T13:04:06.784Z,5.12
2018-01-20T13:06:34.228Z,5.11
2018-01-20T13:09:01.677Z,5.06
2018-01-20T13:11:29.800Z,5.31
2018-01-20T13:13:57.245Z,5.09
2018-01-20T13:16:24.743Z,5.10
2018-01-20T13:18:52.457Z,5.21
2018-01-20T13:21:20.596Z,5.44
2018-01-20T13:23:48.039Z,5.15
2018-01-20T13:26:15.767Z,5.44
2018-01-20T13:28:43.213Z,5.68
2018-01-20T13:31:10.660Z,5.30
2018-01-20T13:33:38.412Z,5.30
2018-01-20T13:36:05.866Z,5.07
2018-01-20T13:38:33.315Z,4.94
2018-01-20T13:41:01.139Z,5.29
2018-01-20T13:43:28.585Z,5.83
2018-01-20T13:45:56.033Z,6.02
2018-01-20T13:48:23.812Z,5.59
2018-01-20T13:50:51.260Z,5.65
2018-01-20T13:53:18.704Z,5.75
2018-01-20T13:55:46.505Z,5.28
2018-01-20T13:58:13.945Z,5.50
2018-01-20T14:00:41.406Z,5.39
2018-01-20T14:03:09.200Z,5.20
2018-01-20T14:05:36.661Z,4.96
2018-01-20T14:08:04.110Z,4.92
2018-01-20T14:10:31.889Z,4.82
2018-01-20T14:12:59.336Z,4.82
2018-01-20T14:15:26.785Z,4.73
2018-01-20T14:17:54.621Z,4.95
2018-01-20T14:20:22.080Z,4.54
2018-01-20T14:22:50.172Z,4.81
2018-01-20T14:25:17.874Z,5.00
2018-01-20T14:27:45.325Z,4.86
2018-01-20T14:30:12.772Z,4.62
2018-01-20T14:32:40.887Z,4.43
2018-01-20T14:35:08.334Z,4.46
2018-01-20T14:37:35.780Z,4.59
2018-01-20T14:40:03.394Z,4.79
2018-01-20T14:42:30.844Z,4.75
2018-01-20T14:44:58.290Z,4.81
2018-01-20T14:47:26.237Z,4.91
2018-01-20T14:49:53.681Z,4.79
2018-01-20T14:52:21.156Z,4.80
2018-01-20T14:54:48.927Z,4.68
2018-01-20T14:57:16.380Z,4.75
2018-01-20T14:59:43.834Z,4.73
2018-01-20T15:02:11.460Z,4.64
2018-01-20T15:04:38.937Z,4.65
2018-01-20T15:07:06.384Z,4.37
2018-01-20T15:09:34.620Z,4.20
2018-01-20T15:12:02.086Z,3.93
2018-01-20T15:14:29.531Z,4.01
2018-01-20T15:16:57.294Z,3.84
2018-01-20T15:19:24.768Z,3.75
2018-01-20T15:21:52.212Z,3.80
2018-01-20T15:24:20.824Z,3.72
2018-01-20T15:26:48.268Z,3.71
2018-01-20T15:29:15.726Z,3.67
2018-01-20T15:31:43.583Z,3.72
2018-01-20T15:34:11.022Z,3.93
2018-01-20T15:36:38.465Z,3.70
2018-01-20T15:39:06.282Z,3.74
2018-01-20T15:41:33.727Z,3.64
2018-01-20T15:44:01.181Z,3.63
2018-01-20T15:46:28.956Z,3.65
2018-01-20T15:48:56.400Z,3.53
2018-01-20T15:51:23.849Z,3.78
2018-01-20T15:53:51.960Z,3.65
2018-01-20T15:56:19.400Z,3.61
2018-01-20T15:58:46.845Z,3.58
2018-01-20T16:01:14.644Z,3.53
2018-01-20T16:03:42.086Z,3.55
2018-01-20T16:06:09.617Z,3.57
2018-01-20T16:08:37.642Z,3.46
2018-01-20T16:11:05.089Z,3.58
2018-01-20T16:13:32.536Z,3.43
2018-01-20T16:16:00.332Z,3.38
2018-01-20T16:18:27.782Z,3.55
2018-01-20T16:20:55.268Z,3.67
2018-01-20T16:23:23.012Z,3.49
2018-01-20T16:25:50.865Z,3.30
2018-01-20T16:28:18.325Z,3.53
2018-01-20T16:30:46.328Z,3.48
2018-01-20T16:33:13.773Z,3.27
2018-01-20T16:35:41.217Z,3.45
2018-01-20T16:38:09.319Z,3.08
2018-01-20T16:40:36.756Z,3.32
2018-01-20T16:43:04.210Z,3.20
2018-01-20T16:45:32.000Z,3.01
2018-01-20T16:47:59.447Z,3.07
2018-01-20T16:50:26.898Z,3.25
2018-01-20T16:52:54.677Z,3.27
2018-01-20T16:55:22.130Z,3.11
2018-01-20T16:57:49.580Z,2.90
2018-01-20T17:00:17.383Z,2.86
2018-01-20T17:02:44.836Z,3.14
2018-01-20T17:05:13.398Z,3.01
2018-01-20T17:07:41.290Z,2.90
2018-01-20T17:10:08.780Z,3.07
2018-01-20T17:12:36.225Z,3.13
2018-01-20T17:15:04.228Z,3.11
2018-01-20T17:17:31.692Z,3.01
2018-01-20T17:19:59.147Z,2.86
2018-01-20T17:22:26.970Z,2.75
2018-01-20T17:24:54.417Z,2.72
2018-01-20T17:27:24.411Z,2.61
2018-01-20T17:29:52.111Z,2.53
2018-01-20T17:32:19.564Z,2.61
2018-01-20T17:34:47.020Z,2.54
2018-01-20T17:37:14.796Z,2.53
2018-01-20T17:39:42.257Z,2.68
2018-01-20T17:42:09.701Z,2.55
2018-01-20T17:44:37.821Z,2.44
2018-01-20T17:47:05.264Z,2.42
2018-01-20T17:49:32.708Z,2.41
2018-01-20T17:52:00.515Z,2.37
2018-01-20T17:54:27.969Z,2.41
2018-01-20T17:56:55.413Z,2.50
2018-01-20T17:59:23.322Z,2.43
2018-01-20T18:01:50.763Z,2.38
2018-01-20T18:04:18.208Z,2.39
2018-01-20T18:06:46.177Z,2.36
2018-01-20T18:09:13.673Z,2.45
2018-01-20T18:11:41.142Z,2.48
2018-01-20T18:14:08.862Z,2.42
2018-01-20T18:16:36.322Z,2.42
2018-01-20T18:19:03.776Z,2.45
2018-01-20T18:21:31.605Z,2.47
2018-01-20T18:23:59.053Z,2.53
2018-01-20T18:26:26.500Z,2.42
2018-01-20T18:28:54.580Z,2.42
2018-01-20T18:31:22.039Z,2.43
2018-01-20T18:33:49.501Z,2.42
2018-01-20T18:36:17.210Z,2.52
2018-01-20T18:38:44.665Z,2.42
2018-01-20T18:41:12.120Z,2.54
2018-01-20T18:43:39.933Z,2.57
2018-01-20T18:46:07.392Z,2.51
2018-01-20T18:48:34.852Z,2.49
2018-01-20T18:51:02.593Z,2.52
2018-01-20T18:53:30.057Z,2.50
2018-01-20T18:55:57.508Z,2.53
2018-01-20T18:58:25.581Z,2.50
2018-01-20T19:00:53.036Z,2.47
2018-01-20T19:03:20.509Z,2.40
2018-01-20T19:05:48.270Z,2.51
2018-01-20T19:08:15.725Z,2.43
2018-01-20T19:10:43.177Z,2.45
2018-01-20T19:13:11.268Z,2.44
2018-01-20T19:15:38.736Z,2.37
2018-01-20T19:18:06.192Z,2.29
2018-01-20T19:20:33.953Z,2.40
2018-01-20T19:23:01.409Z,2.39
2018-01-20T19:25:28.864Z,2.39
2018-01-20T19:27:56.641Z,2.41
2018-01-20T19:30:24.490Z,2.41
2018-01-20T19:32:51.948Z,2.50
2018-01-20T19:35:19.634Z,2.42
2018-01-20T19:37:47.098Z,2.54
2018-01-20T19:40:14.567Z,2.57
2018-01-20T19:42:42.324Z,2.53
2018-01-20T19:45:09.793Z,2.60
2018-01-20T19:47:37.254Z,2.65
2018-01-20T19:50:05.007Z,2.58
2018-01-20T19:52:32.456Z,2.64
2018-01-20T19:54:59.901Z,2.61
2018-01-20T19:57:27.605Z,2.72
2018-01-20T19:59:55.679Z,2.70
2018-01-20T20:02:23.150Z,2.66
2018-01-20T20:04:51.006Z,2.66
2018-01-20T20:07:18.465Z,2.51
2018-01-20T20:09:45.931Z,2.61
2018-01-20T20:12:13.691Z,2.71
2018-01-20T20:14:41.156Z,2.89
2018-01-20T20:17:08.604Z,2.79
2018-01-20T20:19:36.377Z,2.94
2018-01-20T20:22:03.831Z,2.88
2018-01-20T20:24:31.288Z,2.79
2018-01-20T20:26:59.058Z,2.87
2018-01-20T20:29:26.517Z,2.84
2018-01-20T20:31:54.824Z,2.80
2018-01-20T20:34:23.319Z,2.80
2018-01-20T20:36:50.769Z,2.76
2018-01-20T20:39:18.221Z,2.76
2018-01-20T20:41:46.600Z,2.70
2018-01-20T20:44:14.707Z,2.60
2018-01-20T20:46:42.781Z,2.47
2018-01-20T20:49:10.941Z,2.53
2018-01-20T20:51:38.812Z,2.39
2018-01-20T20:54:06.392Z,2.41
2018-01-20T20:56:34.731Z,2.43
2018-01-20T20:59:02.178Z,2.59
2018-01-20T21:01:30.122Z,2.51
2018-01-20T21:03:58.349Z,2.54
2018-01-20T21:06:26.016Z,2.58
2018-01-20T21:08:53.783Z,2.46
2018-01-20T21:11:21.620Z,2.37
2018-01-20T21:13:49.665Z,2.38
2018-01-20T21:16:17.180Z,2.37
2018-01-20T21:18:45.168Z,2.37
2018-01-20T21:21:12.685Z,2.41
2018-01-20T21:23:40.128Z,2.56
2018-01-20T21:26:07.935Z,2.60
2018-01-20T21:28:35.396Z,2.55
2018-01-20T21:31:02.843Z,2.57
2018-01-20T21:33:30.912Z,2.61
2018-01-20T21:35:58.364Z,2.69
2018-01-20T21:38:25.807Z,2.69
2018-01-20T21:40:53.608Z,2.80
2018-01-20T21:43:21.413Z,3.74
2018-01-20T21:45:48.866Z,2.84
2018-01-20T21:48:16.602Z,2.35
2018-01-20T21:50:44.050Z,2.62
2018-01-20T21:53:11.497Z,2.72
2018-01-20T21:55:39.289Z,2.68
2018-01-20T21:58:06.799Z,2.71
2018-01-20T22:00:34.258Z,2.65
2018-01-20T22:03:01.880Z,2.66
2018-01-20T22:05:29.320Z,2.58
2018-01-20T22:08:08.569Z,2.70
2018-01-20T22:10:36.012Z,2.66
2018-01-20T22:13:03.465Z,2.30
2018-01-20T22:15:31.269Z,2.35
2018-01-20T22:17:58.728Z,2.51
2018-01-20T22:20:26.188Z,2.68
2018-01-20T22:22:54.565Z,2.57
2018-01-20T22:25:22.029Z,2.65
2018-01-20T22:27:49.495Z,2.67
2018-01-20T22:30:17.248Z,2.71
2018-01-20T22:32:44.697Z,2.79
2018-01-20T22:35:13.993Z,2.81
2018-01-20T22:37:41.776Z,2.87
2018-01-20T22:40:09.224Z,2.84
2018-01-20T22:42:36.669Z,2.91
2018-01-20T22:45:04.767Z,2.95
2018-01-20T22:47:32.216Z,2.99
2018-01-20T22:49:59.674Z,3.03
2018-01-20T22:52:27.374Z,2.91
2018-01-20T22:54:54.832Z,2.81
2018-01-20T22:57:22.281Z,2.89
2018-01-20T22:59:50.128Z,2.98
2018-01-20T23:02:17.566Z,2.96
2018-01-20T23:04:45.079Z,2.91
2018-01-20T23:07:12.823Z,2.92
2018-01-20T23:09:40.264Z,2.60
2018-01-20T23:12:07.722Z,2.81
2018-01-20T23:14:35.520Z,2.79
2018-01-20T23:17:02.965Z,2.75
2018-01-20T23:19:30.417Z,2.59
2018-01-20T23:21:58.214Z,2.65
2018-01-20T23:24:25.664Z,2.53
2018-01-20T23:26:53.131Z,2.56
2018-01-20T23:29:21.213Z,2.36
2018-01-20T23:31:48.663Z,2.18
2018-01-20T23:34:16.117Z,2.24
2018-01-20T23:36:44.188Z,2.26
2018-01-20T23:39:11.632Z,2.23
2018-01-20T23:41:39.082Z,1.92
2018-01-20T23:44:06.889Z,1.89
2018-01-20T23:46:34.336Z,1.88
2018-01-20T23:49:01.781Z,2.10
2018-01-20T23:51:29.882Z,2.02
2018-01-20T23:53:57.400Z,2.13
2018-01-20T23:56:24.849Z,2.20
2018-01-20T23:58:52.877Z,1.91
